Latest Weather Observations for Amberley

IDQ60801

Issued at 5:22 pm EST Friday 22 June 2018 (issued every 10 minutes, with the page automatically refreshed every 10 minutes)

About weather observations | Map of weather stations | Latest weather observations for QLD | Other Formats
Station Details ID: 040004 Name: AMBERLEY AMO Lat: -27.63 Lon: 152.71 Height: 24.2 m
Data from the previous 72 hours. | See also: Recent months at Amberley
Date/Time
EST
Temp
°C
App
Temp
°C
Dew
Point
°C
Rel
Hum
%
Delta-T
°C
Wind Press
QNH
hPa
Press
MSL
hPa
Rain since
9am
mm
Dir  Spd
km/h
Gust
km/h
Spd
kts
Gust
kts
22/05:00pm 20.0 16.3 7.9 45 6.2 ENE 17 26 9 14 1024.3 1024.3 0.0
22/04:30pm 21.2 18.1 7.1 40 7.2 ENE 13 17 7 9 1023.9 1023.9 0.0
22/04:00pm 21.4 19.9 5.1 34 8.0 ENE 2 9 1 5 1023.8 1023.8 0.0
22/03:30pm 21.6 18.6 4.0 31 8.5 ENE 9 11 5 6 1023.6 1023.6 0.0
22/03:00pm 22.3 19.2 3.6 29 9.0 E 9 17 5 9 1023.6 1023.6 0.0
22/02:30pm 22.4 19.9 5.0 32 8.6 NE 7 13 4 7 1023.7 1023.7 0.0
22/02:00pm 23.8 20.9 4.9 29 9.4 SSE 9 15 5 8 1023.7 1023.7 0.0
22/01:30pm 22.0 19.2 5.2 33 8.3 NNE 9 15 5 8 1023.8 1023.8 0.0
22/01:00pm 21.4 19.2 6.3 37 7.6 NE 7 9 4 5 1024.2 1024.2 0.0
22/12:30pm 22.0 19.7 5.8 35 8.1 SW 7 13 4 7 1024.6 1024.6 0.0
22/12:00pm 21.6 18.8 6.9 38 7.5 SSE 11 19 6 10 1025.1 1025.1 0.0
22/11:30am 20.7 17.9 6.9 40 7.0 S 11 19 6 10 1025.9 1025.9 0.0
22/11:00am 20.9 17.8 7.4 41 6.9 SSE 13 20 7 11 1026.4 1026.4 0.0
22/10:30am 18.9 16.6 8.9 52 5.2 SSW 11 19 6 10 1026.9 1026.9 0.0
22/10:00am 17.6 14.9 9.1 57 4.4 SSW 13 19 7 10 1027.0 1027.0 0.0
22/09:30am 15.8 13.9 8.9 63 3.5 SSW 9 15 5 8 1027.3 1027.3 0.0
22/09:00am 12.7 11.2 8.4 75 2.1 S 6 9 3 5 1027.3 1027.3 0.0
22/08:30am 10.3 9.5 8.0 86 1.1 S 2 7 1 4 1027.3 1027.3 0.0
22/08:00am 7.0 6.0 5.6 91 0.6 CALM 0 0 0 0 1027.2 1027.2 0.0
22/07:30am 3.9 2.4 3.2 95 0.3 CALM 0 0 0 0 1027.0 1027.0 0.0
22/07:00am 1.9 0.2 1.6 98 0.1 CALM 0 0 0 0 1026.8 1026.8 0.0
22/06:55am 2.7 1.1 2.2 96 0.2 CALM 0 0 0 0 1026.7 1026.7 0.0
22/06:52am 3.0 1.4 2.2 94 0.3 CALM 0 2 0 1 1026.7 1026.7 0.0
22/06:30am 2.7 1.1 2.4 98 0.1 CALM 0 0 0 0 1026.4 1026.4 0.0
22/06:22am 2.9 1.3 2.4 96 0.2 CALM 0 0 0 0 1026.3 1026.3 0.0
22/06:00am 3.2 1.6 2.7 96 0.2 CALM 0 0 0 0 1026.2 1026.2 0.0
22/05:55am 3.2 1.6 2.4 94 0.3 CALM 0 0 0 0 1026.1 1026.1 0.0
22/05:30am 3.4 1.8 2.6 94 0.3 CALM 0 0 0 0 1025.9 1025.9 0.0
22/05:20am 3.5 1.9 2.7 94 0.3 CALM 0 0 0 0 1025.7 1025.7 0.0
22/05:00am 3.0 1.4 2.7 98 0.1 CALM 0 0 0 0 1025.6 1025.6 0.0
22/04:42am 3.6 2.1 3.1 97 0.2 CALM 0 0 0 0 1025.6 1025.6 0.0
22/04:36am 3.6 2.1 3.1 97 0.2 CALM 0 0 0 0 1025.5 1025.5 0.0
22/04:30am 3.7 2.2 3.2 97 0.2 CALM 0 0 0 0 1025.5 1025.5 0.0
22/04:00am 4.1 2.7 3.6 97 0.2 CALM 0 0 0 0 1025.4 1025.4 0.0
22/03:48am 4.1 2.7 3.4 95 0.3 CALM 0 0 0 0 1025.4 1025.4 0.0
22/03:30am 4.4 3.1 4.2 99 0.1 CALM 0 0 0 0 1025.4 1025.4 0.0
22/03:23am 4.5 3.1 3.8 95 0.3 CALM 0 0 0 0 1025.5 1025.5 0.0
22/03:00am 4.4 2.3 3.7 95 0.3 SW 4 7 2 4 1025.5 1025.5 0.0
22/02:57am 4.4 2.3 3.7 95 0.3 SW 4 7 2 4 1025.5 1025.5 0.0
22/02:30am 4.8 3.6 4.6 99 0.1 CALM 0 0 0 0 1025.5 1025.5 0.0
22/02:02am 5.4 4.3 5.2 99 0.1 CALM 0 0 0 0 1025.6 1025.6 0.0
22/02:00am 5.4 4.4 5.4 100 0.0 CALM 0 0 0 0 1025.6 1025.6 0.0
22/01:58am 5.7 4.7 5.5 99 0.1 CALM 0 0 0 0 1025.6 1025.6 0.0
22/01:30am 6.1 5.1 5.6 97 0.2 CALM 0 0 0 0 1025.7 1025.7 0.0
22/01:00am 5.7 4.6 5.2 97 0.2 CALM 0 4 0 2 1025.8 1025.8 0.0
22/12:30am 6.2 5.2 5.7 97 0.2 CALM 0 0 0 0 1025.7 1025.7 0.0
22/12:23am 6.3 5.3 5.4 94 0.4 CALM 0 0 0 0 1025.7 1025.7 0.0
22/12:00am 6.8 5.9 6.1 95 0.3 CALM 0 0 0 0 1025.9 1025.9 0.0
 
Date/Time
EST
Temp
°C
App
Temp
°C
Dew
Point
°C
Rel
Hum
%
Delta-T
°C
Wind Press
QNH
hPa
Press
MSL
hPa
Rain since
9am
mm
Dir  Spd
km/h
Gust
km/h
Spd
kts
Gust
kts
21/11:37pm 7.0 6.3 6.8 99 0.1 CALM 0 0 0 0 1025.9 1025.9 0.0
21/11:30pm 7.3 6.2 6.9 97 0.2 SW 2 6 1 3 1025.9 1025.9 0.0
21/11:14pm 7.9 7.3 7.5 97 0.2 CALM 0 0 0 0 1026.0 1026.0 0.0
21/11:00pm 7.6 6.8 6.7 94 0.4 CALM 0 0 0 0 1026.0 1026.0 0.0
21/10:30pm 7.8 6.3 6.9 94 0.4 SW 4 7 2 4 1025.9 1025.9 0.0
21/10:00pm 8.6 7.6 7.5 93 0.5 SW 2 9 1 5 1025.7 1025.7 0.0
21/09:30pm 9.8 8.1 8.4 91 0.7 SW 7 9 4 5 1025.7 1025.7 0.0
21/09:00pm 11.2 9.7 9.0 86 1.1 S 7 9 4 5 1025.6 1025.6 0.0
21/08:30pm 11.7 11.6 9.5 86 1.1 CALM 0 0 0 0 1025.4 1025.4 0.0
21/08:00pm 12.8 10.9 9.2 79 1.8 E 9 11 5 6 1025.3 1025.3 0.0
21/07:30pm 14.4 14.3 9.3 71 2.6 CALM 0 0 0 0 1025.0 1025.0 0.0
21/07:00pm 15.9 14.7 10.4 70 2.9 E 7 7 4 4 1025.0 1025.0 0.0
21/06:30pm 16.4 14.7 9.9 65 3.4 ESE 9 11 5 6 1024.9 1024.9 0.0
21/06:00pm 17.0 15.4 10.2 64 3.6 ESE 9 11 5 6 1024.3 1024.3 0.0
21/05:30pm 17.5 15.8 9.9 61 4.0 ESE 9 13 5 7 1024.0 1024.0 0.0
21/05:00pm 19.1 15.4 9.4 53 5.1 SE 19 26 10 14 1023.5 1023.5 0.0
21/04:30pm 20.3 16.8 8.6 47 6.1 SE 17 22 9 12 1023.2 1023.2 0.0
21/04:00pm 20.8 18.3 8.3 44 6.5 SSE 11 13 6 7 1022.9 1022.9 0.0
21/03:30pm 21.3 18.1 6.7 38 7.4 S 13 19 7 10 1022.8 1022.8 0.0
21/03:00pm 21.3 18.9 7.0 39 7.3 ESE 9 13 5 7 1022.6 1022.6 0.0
21/02:30pm 23.0 19.8 6.8 35 8.3 SE 13 19 7 10 1022.6 1022.6 0.0
21/02:00pm 23.2 20.7 6.6 34 8.5 ESE 9 13 5 7 1022.6 1022.6 0.0
21/01:30pm 21.0 18.8 6.2 38 7.4 WSW 7 13 4 7 1022.7 1022.7 0.0
21/01:00pm 21.5 18.6 6.7 38 7.5 S 11 17 6 9 1023.0 1023.0 0.0
21/12:30pm 21.7 19.3 6.8 38 7.6 ESE 9 20 5 11 1023.4 1023.4 0.0
21/12:00pm 21.8 18.9 6.3 36 7.8 SSE 11 17 6 9 1023.8 1023.8 0.0
21/11:30am 20.2 17.7 6.4 40 6.9 SSE 9 17 5 9 1024.5 1024.5 0.0
21/11:00am 20.0 16.1 5.5 38 7.1 S 15 22 8 12 1024.9 1024.9 0.0
21/10:30am 18.2 14.7 5.6 43 6.1 SSW 13 24 7 13 1025.4 1025.4 0.0
21/10:00am 16.8 14.3 4.7 44 5.7 SW 7 13 4 7 1025.6 1025.6 0.0
21/09:30am 14.5 12.1 5.3 54 4.3 WNW 7 11 4 6 1025.8 1025.8 0.0
21/09:00am 11.8 9.3 5.0 63 3.1 WNW 7 11 4 6 1025.8 1025.8 0.0
21/08:30am 9.7 8.9 6.5 80 1.5 CALM 0 0 0 0 1025.6 1025.6 0.0
21/08:00am 6.5 5.4 4.9 89 0.7 CALM 0 0 0 0 1025.4 1025.4 0.0
21/07:30am 4.6 3.2 3.6 93 0.4 CALM 0 0 0 0 1025.2 1025.2 0.0
21/07:00am 2.4 0.7 1.6 94 0.3 CALM 0 0 0 0 1024.8 1024.8 0.0
21/06:30am 2.5 0.9 2.5 100 0.0 CALM 0 0 0 0 1024.7 1024.7 0.0
21/06:22am 3.2 1.6 2.4 94 0.3 CALM 0 0 0 0 1024.5 1024.5 0.0
21/06:00am 2.4 0.7 1.6 94 0.3 CALM 0 0 0 0 1024.2 1024.2 0.0
21/05:30am 2.7 1.0 1.9 94 0.3 CALM 0 0 0 0 1023.8 1023.8 0.0
21/05:00am 3.0 1.4 2.2 94 0.3 CALM 0 0 0 0 1023.5 1023.5 0.0
21/04:30am 3.5 0.8 2.7 94 0.3 NNW 6 7 3 4 1023.2 1023.2 0.0
21/04:00am 3.7 2.1 2.4 91 0.5 CALM 0 0 0 0 1023.2 1023.2 0.0
21/03:30am 5.2 3.9 4.0 92 0.5 CALM 0 0 0 0 1023.2 1023.2 0.0
21/03:00am 4.2 2.7 3.2 93 0.4 CALM 0 0 0 0 1023.4 1023.4 0.0
21/02:30am 4.0 0.8 3.0 93 0.4 NW 9 11 5 6 1023.4 1023.4 0.0
21/02:00am 4.8 3.0 3.6 92 0.5 WNW 2 7 1 4 1023.7 1023.7 0.0
21/01:30am 4.6 2.0 3.1 90 0.6 NNW 6 9 3 5 1023.7 1023.7 0.0
21/01:00am 3.4 0.5 2.6 94 0.3 S 7 9 4 5 1023.9 1023.9 0.0
21/12:30am 4.4 2.9 3.2 92 0.5 CALM 0 0 0 0 1023.9 1023.9 0.0
21/12:00am 4.5 3.0 3.0 90 0.6 CALM 0 0 0 0 1023.9 1023.9 0.0
 
Date/Time
EST
Temp
°C
App
Temp
°C
Dew
Point
°C
Rel
Hum
%
Delta-T
°C
Wind Press
QNH
hPa
Press
MSL
hPa
Rain since
9am
mm
Dir  Spd
km/h
Gust
km/h
Spd
kts
Gust
kts
20/11:30pm 5.5 4.2 4.1 91 0.6 CALM 0 4 0 2 1023.8 1023.8 0.0
20/11:00pm 4.3 1.7 3.1 92 0.5 S 6 9 3 5 1023.9 1023.9 0.0
20/10:30pm 5.5 2.8 3.8 89 0.7 S 7 9 4 5 1024.0 1024.0 0.0
20/10:00pm 6.9 4.3 4.3 83 1.1 S 7 9 4 5 1023.8 1023.8 0.0
20/09:30pm 7.5 4.6 4.8 83 1.2 S 9 11 5 6 1023.9 1023.9 0.0
20/09:00pm 7.2 4.6 4.4 82 1.2 S 7 9 4 5 1023.8 1023.8 0.0
20/08:30pm 9.2 6.7 4.9 74 1.9 S 7 9 4 5 1023.9 1023.9 0.0
20/08:00pm 12.2 9.4 5.0 61 3.3 SSW 9 13 5 7 1023.7 1023.7 0.0
20/07:30pm 10.4 8.0 4.1 65 2.8 SSW 6 9 3 5 1024.0 1024.0 0.0
20/07:00pm 13.6 10.8 5.0 56 4.0 SSW 9 11 5 6 1023.5 1023.5 0.0
20/06:30pm 14.0 10.8 5.0 54 4.2 S 11 13 6 7 1022.8 1022.8 0.0
20/06:00pm 15.0 11.8 5.2 52 4.6 S 11 15 6 8 1022.5 1022.5 0.0
20/05:30pm 14.7 11.4 4.8 51 4.6 S 11 13 6 7 1022.1 1022.1 0.0
20/05:00pm 16.6 13.0 5.0 46 5.5 S 13 17 7 9 1021.7 1021.7 0.0
20/04:30pm 19.4 14.6 4.6 37 7.1 S 19 26 10 14 1021.5 1021.5 0.0
20/04:00pm 20.0 15.6 5.0 37 7.3 S 17 24 9 13 1021.3 1021.3 0.0
20/03:30pm 20.0 14.3 4.7 36 7.4 S 24 32 13 17 1020.8 1020.8 0.0
20/03:00pm 21.3 15.6 5.0 34 8.0 SSE 24 32 13 17 1020.8 1020.8 0.0
20/02:30pm 21.0 16.2 5.7 37 7.6 SSE 20 32 11 17 1020.7 1020.7 0.0
20/02:00pm 22.6 17.7 5.1 32 8.7 SSE 20 30 11 16 1020.6 1020.6 0.0
20/01:30pm 20.8 14.3 4.8 35 7.8 SSE 28 39 15 21 1020.8 1020.8 0.0
20/01:00pm 20.5 13.0 4.6 35 7.7 SSE 33 44 18 24 1020.5 1020.5 0.0
20/12:30pm 20.3 13.0 5.5 38 7.3 SSE 33 43 18 23 1020.7 1020.7 0.0
20/12:00pm 20.9 15.3 5.2 35 7.7 SSW 24 33 13 18 1021.1 1021.1 0.0
20/11:30am 20.4 16.4 4.7 35 7.6 SSE 15 26 8 14 1021.6 1021.6 0.0
20/11:00am 19.4 14.9 4.3 37 7.2 S 17 26 9 14 1022.2 1022.2 0.0
20/10:30am 18.1 14.3 3.8 38 6.7 SW 13 19 7 10 1022.6 1022.6 0.0
20/10:00am 17.1 13.1 2.8 38 6.5 W 13 17 7 9 1022.9 1022.9 0.0
20/09:30am 13.8 11.3 3.6 50 4.6 SW 6 9 3 5 1023.1 1023.1 0.0
20/09:00am 11.3 9.1 3.6 59 3.4 W 4 9 2 5 1023.3 1023.3 0.0
20/08:30am 8.3 5.7 3.1 70 2.2 S 6 11 3 6 1023.0 1023.0 0.0
20/08:00am 5.3 2.5 2.3 81 1.2 ESE 6 11 3 6 1023.0 1023.0 0.0
20/07:30am 2.6 -0.4 1.0 89 0.6 SW 6 9 3 5 1022.6 1022.6 0.0
20/07:00am 0.5 - - - - SSW 7 9 4 5 1022.4 1022.4 0.0
20/06:30am 0.5 - - - - SSW 2 9 1 5 1021.8 1021.8 0.0
20/06:00am 0.0 - - - - CALM 0 0 0 0 1021.5 1021.5 0.0
20/05:30am 0.6 -2.6 -0.4 93 0.4 WNW 6 11 3 6 1021.4 1021.4 0.0
20/05:00am 0.6 -2.5 0.0 96 0.2 WNW 6 7 3 4 1021.1 1021.1 0.0
20/04:30am 0.0 - - - - WNW 9 11 5 6 1020.9 1020.9 0.0
20/04:00am 0.9 -1.1 0.1 94 0.3 CALM 0 0 0 0 1020.9 1020.9 0.0
20/03:30am 1.8 -1.9 -0.1 87 0.7 WNW 9 11 5 6 1020.7 1020.7 0.0
20/03:00am 1.3 -1.1 -0.4 88 0.6 WNW 2 7 1 4 1020.7 1020.7 0.0
20/02:30am 1.4 -0.6 -0.3 88 0.6 CALM 0 0 0 0 1020.4 1020.4 0.0
20/02:00am 1.9 0.0 0.3 89 0.6 CALM 0 6 0 3 1020.4 1020.4 0.0
20/01:30am 2.1 -1.5 0.8 91 0.5 WNW 9 11 5 6 1020.2 1020.2 0.0
20/01:00am 2.8 0.9 0.4 84 0.9 CALM 0 0 0 0 1020.0 1020.0 0.0
20/12:30am 3.1 1.3 1.0 86 0.8 CALM 0 2 0 1 1020.0 1020.0 0.0
20/12:00am 4.2 1.3 1.7 84 1.0 WNW 6 7 3 4 1020.0 1020.0 0.0
 
Date/Time
EST
Temp
°C
App
Temp
°C
Dew
Point
°C
Rel
Hum
%
Delta-T
°C
Wind Press
QNH
hPa
Press
MSL
hPa
Rain since
9am
mm
Dir  Spd
km/h
Gust
km/h
Spd
kts
Gust
kts
19/11:30pm 3.1 0.5 0.7 84 0.9 WNW 4 7 2 4 1020.0 1020.0 0.0
19/11:00pm 4.8 3.0 0.9 76 1.5 CALM 0 0 0 0 1019.9 1019.9 0.0
19/10:30pm 5.3 3.5 1.2 75 1.6 CALM 0 0 0 0 1019.8 1019.8 0.0
19/10:00pm 5.4 3.6 1.1 74 1.7 CALM 0 0 0 0 1019.8 1019.8 0.0
19/09:30pm 5.9 2.3 0.8 70 2.0 WNW 9 11 5 6 1019.5 1019.5 0.0
19/09:00pm 5.6 2.4 1.0 72 1.8 WNW 7 11 4 6 1019.6 1019.6 0.0
19/08:30pm 9.3 6.0 0.3 53 3.6 WNW 7 9 4 5 1019.4 1019.4 0.0
19/08:00pm 9.6 6.3 0.4 52 3.7 SW 7 9 4 5 1019.2 1019.2 0.0
19/07:30pm 11.4 7.8 0.5 47 4.5 SW 9 13 5 7 1019.0 1019.0 0.0
19/07:00pm 12.7 9.1 0.8 44 5.0 WSW 9 13 5 7 1018.9 1018.9 0.0
19/06:30pm 13.9 9.4 -0.4 37 5.9 WSW 13 17 7 9 1018.4 1018.4 0.0
19/06:00pm 14.3 9.0 -0.4 36 6.1 WSW 17 20 9 11 1018.0 1018.0 0.0
19/05:30pm 15.7 10.8 -0.8 32 6.9 WSW 15 22 8 12 1017.5 1017.5 0.0

Other Formats:

Comma delimited format used in spreadsheet applications
http://www.bom.gov.au/fwo/IDQ60801/IDQ60801.94568.axf

JavaScript Object Notation format (JSON) in row-major order
http://www.bom.gov.au/fwo/IDQ60801/IDQ60801.94568.json